createdAt,value
2022-09-18T00:02:36.589Z,99006.91
2022-09-18T00:07:38.144Z,99011.09
2022-09-18T00:12:39.706Z,99017.28
2022-09-18T00:17:41.270Z,99020.34
2022-09-18T00:22:43.173Z,99012.28
2022-09-18T00:27:44.714Z,99019.91
2022-09-18T00:32:46.296Z,99020.13
2022-09-18T00:37:47.882Z,99024.00
2022-09-18T00:42:49.463Z,99026.19
2022-09-18T00:47:52.438Z,99032.84
2022-09-18T00:52:58.876Z,99024.03
2022-09-18T00:58:03.201Z,99024.75
2022-09-18T01:03:05.371Z,99036.22
2022-09-18T01:08:25.543Z,99039.69
2022-09-18T01:13:34.909Z,99033.84
2022-09-18T01:19:02.485Z,99041.66
2022-09-18T01:24:33.103Z,99052.63
2022-09-18T01:30:02.464Z,99048.00
2022-09-18T01:35:48.051Z,99055.28
2022-09-18T01:40:49.568Z,99051.94
2022-09-18T01:45:55.470Z,99047.53
2022-09-18T01:51:21.432Z,99056.59
2022-09-18T01:56:28.367Z,99068.59
2022-09-18T02:01:33.831Z,99079.75
2022-09-18T02:06:44.511Z,99081.47
2022-09-18T02:11:52.197Z,99077.81
2022-09-18T02:17:01.398Z,99072.19
2022-09-18T02:22:10.940Z,99076.72
2022-09-18T02:27:15.333Z,99072.13
2022-09-18T02:32:17.260Z,99066.53
2022-09-18T02:37:29.229Z,99056.66
2022-09-18T02:42:52.170Z,99057.03
2022-09-18T02:48:21.707Z,99070.38
2022-09-18T02:53:42.429Z,99078.38
2022-09-18T02:58:56.223Z,99073.31
2022-09-18T03:04:10.262Z,99091.78
2022-09-18T03:09:26.323Z,99086.50
2022-09-18T03:14:28.367Z,99089.22
2022-09-18T03:19:30.549Z,99096.16
2022-09-18T03:24:33.515Z,99100.44
2022-09-18T03:29:37.137Z,99116.28
2022-09-18T03:34:39.385Z,99117.19
2022-09-18T03:39:40.953Z,99119.03
2022-09-18T03:44:46.233Z,99115.69
2022-09-18T03:50:01.719Z,99119.19
2022-09-18T03:55:07.465Z,99137.38
2022-09-18T04:00:38.276Z,99147.34
2022-09-18T04:05:49.222Z,99153.03
2022-09-18T04:10:56.637Z,99160.34
2022-09-18T04:15:59.540Z,99164.72
2022-09-18T04:21:03.769Z,99167.53
2022-09-18T04:26:09.499Z,99168.94
2022-09-18T04:31:16.912Z,99166.22
2022-09-18T04:36:18.723Z,99174.84
2022-09-18T04:41:21.777Z,99173.25
2022-09-18T04:46:23.453Z,99178.56
2022-09-18T04:51:27.022Z,99174.19
2022-09-18T04:56:28.787Z,99178.84
2022-09-18T05:01:32.094Z,99182.38
2022-09-18T05:06:37.682Z,99197.19
2022-09-18T05:11:39.322Z,99203.09
2022-09-18T05:16:40.870Z,99202.44
2022-09-18T05:22:02.729Z,99210.22
2022-09-18T05:27:09.248Z,99207.44
2022-09-18T05:32:11.217Z,99204.03
2022-09-18T05:37:14.100Z,99210.47
2022-09-18T05:42:16.315Z,99219.81
2022-09-18T05:47:18.979Z,99231.94
2022-09-18T05:52:21.056Z,99238.09
2022-09-18T05:57:23.211Z,99249.00
2022-09-18T06:02:25.093Z,99237.81
2022-09-18T06:07:42.867Z,99246.53
2022-09-18T06:12:45.289Z,99240.88
2022-09-18T06:17:51.399Z,99243.28
2022-09-18T06:22:54.070Z,99247.06
2022-09-18T06:28:09.946Z,99261.66
2022-09-18T06:33:12.261Z,99251.78
2022-09-18T06:38:15.670Z,99282.91
2022-09-18T06:43:22.393Z,99274.91
2022-09-18T06:48:51.089Z,99281.63
2022-09-18T06:53:52.903Z,99286.81
2022-09-18T06:58:55.484Z,99276.91
2022-09-18T07:03:57.725Z,99291.59
2022-09-18T07:09:07.416Z,99283.41
2022-09-18T07:14:32.369Z,99300.50
2022-09-18T07:19:43.750Z,99299.47
2022-09-18T07:24:47.963Z,99302.09
2022-09-18T07:29:51.157Z,99310.28
2022-09-18T07:34:54.682Z,99310.06
2022-09-18T07:40:02.043Z,99311.06
2022-09-18T07:45:22.812Z,99324.94
2022-09-18T07:50:25.194Z,99319.59
2022-09-18T07:55:28.716Z,99318.31
2022-09-18T08:00:36.224Z,99320.91
2022-09-18T08:05:38.835Z,99323.00
2022-09-18T08:10:43.214Z,99325.22
2022-09-18T08:16:13.937Z,99313.78
2022-09-18T08:21:34.293Z,99322.06
2022-09-18T08:26:38.791Z,99307.94
2022-09-18T08:31:41.700Z,99305.03
2022-09-18T08:36:45.204Z,99308.41
2022-09-18T08:42:26.034Z,99308.69
2022-09-18T08:47:53.254Z,99315.88
2022-09-18T08:53:23.460Z,99310.78
2022-09-18T08:59:00.958Z,99306.09
2022-09-18T09:04:19.427Z,99318.91
2022-09-18T09:09:29.517Z,99317.16
2022-09-18T09:14:56.700Z,99315.38
2022-09-18T09:20:16.975Z,99312.09
2022-09-18T09:25:25.179Z,99309.81
2022-09-18T09:30:56.025Z,99308.53
2022-09-18T09:36:29.520Z,99294.41
2022-09-18T09:41:48.026Z,99304.69
2022-09-18T09:46:50.100Z,99310.16
2022-09-18T09:52:11.076Z,99293.13
2022-09-18T09:57:49.609Z,99307.66
2022-09-18T10:03:16.140Z,99290.47
2022-09-18T10:08:29.333Z,99302.47
2022-09-18T10:13:33.116Z,99297.56
2022-09-18T10:18:42.066Z,99309.78
2022-09-18T10:23:53.369Z,99308.00
2022-09-18T10:28:56.381Z,99303.50
2022-09-18T10:33:58.395Z,99296.72
2022-09-18T10:39:34.448Z,99292.97
2022-09-18T10:44:41.389Z,99288.16
2022-09-18T10:50:06.507Z,99299.25
2022-09-18T10:55:28.336Z,99307.56
2022-09-18T11:00:47.534Z,99300.06
2022-09-18T11:05:57.526Z,99289.69
2022-09-18T11:11:31.688Z,99273.91
2022-09-18T11:16:48.735Z,99258.88
2022-09-18T11:21:56.070Z,99253.44
2022-09-18T11:27:03.943Z,99253.97
2022-09-18T11:32:26.126Z,99255.91
2022-09-18T11:37:53.187Z,99249.63
2022-09-18T11:42:56.985Z,99245.00
2022-09-18T11:48:29.969Z,99248.50
2022-09-18T11:53:39.356Z,99238.81
2022-09-18T11:59:03.617Z,99221.78
2022-09-18T12:04:16.499Z,99225.53
2022-09-18T12:09:45.695Z,99218.59
2022-09-18T12:14:57.930Z,99208.66
2022-09-18T12:20:08.776Z,99214.97
2022-09-18T12:25:16.748Z,99214.03
2022-09-18T12:30:50.111Z,99205.28
2022-09-18T12:36:07.026Z,99223.09
2022-09-18T12:41:33.779Z,99221.88
2022-09-18T12:46:50.678Z,99222.47
2022-09-18T12:52:43.508Z,99224.06
2022-09-18T12:58:44.715Z,99225.88
2022-09-18T13:03:48.716Z,99229.47
2022-09-18T13:09:01.719Z,99228.63
2022-09-18T13:14:15.806Z,99214.94
2022-09-18T13:19:26.161Z,99198.78
2022-09-18T13:24:33.119Z,99191.38
2022-09-18T13:29:51.389Z,99201.59
2022-09-18T13:34:56.559Z,99190.75
2022-09-18T13:40:10.323Z,99196.03
2022-09-18T13:45:12.486Z,99188.94
2022-09-18T13:50:18.951Z,99177.41
2022-09-18T13:55:22.398Z,99180.16
2022-09-18T14:00:24.387Z,99179.13
2022-09-18T14:05:38.438Z,99199.31
2022-09-18T14:11:14.975Z,99194.47
2022-09-18T14:16:20.683Z,99192.41
2022-09-18T14:21:31.776Z,99175.84
2022-09-18T14:26:35.174Z,99201.34
2022-09-18T14:31:49.317Z,99195.94
2022-09-18T14:36:55.314Z,99198.78
2022-09-18T14:42:05.682Z,99195.44
2022-09-18T14:47:20.643Z,99209.25
2022-09-18T14:52:31.950Z,99209.59
2022-09-18T14:57:43.414Z,99211.97
2022-09-18T15:02:50.736Z,99218.59
2022-09-18T15:08:17.045Z,99220.56
2022-09-18T15:13:23.714Z,99214.25
2022-09-18T15:18:28.010Z,99215.44
2022-09-18T15:23:38.269Z,99208.38
2022-09-18T15:28:43.164Z,99196.53
2022-09-18T15:33:56.228Z,99188.16
2022-09-18T15:38:58.593Z,99182.31
2022-09-18T15:44:00.463Z,99169.09
2022-09-18T15:49:23.144Z,99174.66
2022-09-18T15:54:27.262Z,99170.28
2022-09-18T15:59:33.815Z,99170.88
2022-09-18T16:04:36.337Z,99175.22
2022-09-18T16:09:48.844Z,99179.03
2022-09-18T16:14:56.828Z,99175.50
2022-09-18T16:20:01.124Z,99181.38
2022-09-18T16:25:13.750Z,99183.81
2022-09-18T16:30:15.837Z,99180.59
2022-09-18T16:35:17.597Z,99186.78
2022-09-18T16:40:27.441Z,99179.03
2022-09-18T16:45:29.512Z,99189.56
2022-09-18T16:50:31.260Z,99179.16
2022-09-18T16:55:33.616Z,99177.69
2022-09-18T17:00:37.734Z,99176.13
2022-09-18T17:05:39.580Z,99178.94
2022-09-18T17:10:44.980Z,99176.47
2022-09-18T17:15:46.936Z,99185.13
2022-09-18T17:20:48.546Z,99175.97
2022-09-18T17:25:50.531Z,99182.19
2022-09-18T17:30:54.134Z,99186.66
2022-09-18T17:35:55.855Z,99189.72
2022-09-18T17:41:00.533Z,99187.03
2022-09-18T17:46:05.210Z,99187.03
2022-09-18T17:51:12.983Z,99184.78
2022-09-18T17:56:17.276Z,99185.81
2022-09-18T18:01:20.795Z,99182.44
2022-09-18T18:06:22.500Z,99183.78
2022-09-18T18:11:29.373Z,99187.97
2022-09-18T18:16:31.712Z,99203.47
2022-09-18T18:21:34.531Z,99192.78
2022-09-18T18:26:37.740Z,99189.56
2022-09-18T18:31:43.445Z,99209.38
2022-09-18T18:36:45.293Z,99212.00
2022-09-18T18:41:47.506Z,99209.63
2022-09-18T18:46:51.140Z,99218.16
2022-09-18T18:51:53.039Z,99219.03
2022-09-18T18:56:54.781Z,99220.50
2022-09-18T19:01:57.957Z,99207.31
2022-09-18T19:07:00.883Z,99212.56
2022-09-18T19:12:03.406Z,99204.69
2022-09-18T19:17:05.377Z,99200.81
2022-09-18T19:22:07.116Z,99208.41
2022-09-18T19:27:09.216Z,99205.22
2022-09-18T19:32:10.897Z,99199.03
2022-09-18T19:37:16.696Z,99192.47
2022-09-18T19:42:24.177Z,99187.03
2022-09-18T19:47:34.845Z,99171.44
2022-09-18T19:52:36.769Z,99160.97
2022-09-18T19:57:38.376Z,99167.09
2022-09-18T20:02:41.131Z,99166.69
2022-09-18T20:07:42.983Z,99168.75
2022-09-18T20:12:44.740Z,99162.50
2022-09-18T20:17:46.479Z,99171.19
2022-09-18T20:22:51.936Z,99167.06
2022-09-18T20:27:53.521Z,99164.47
2022-09-18T20:32:55.092Z,99153.25
2022-09-18T20:38:00.766Z,99159.25
2022-09-18T20:43:04.316Z,99164.53
2022-09-18T20:48:06.428Z,99159.56
2022-09-18T20:53:09.223Z,99153.69
2022-09-18T20:58:11.346Z,99146.63
2022-09-18T21:03:14.242Z,99151.34
2022-09-18T21:08:15.844Z,99158.47
2022-09-18T21:13:19.135Z,99148.69
2022-09-18T21:18:20.662Z,99153.09
2022-09-18T21:23:40.582Z,99145.59
2022-09-18T21:28:42.219Z,99146.50
2022-09-18T21:33:44.241Z,99146.22
2022-09-18T21:38:48.311Z,99143.66
2022-09-18T21:43:51.132Z,99132.59
2022-09-18T21:48:54.404Z,99138.94
2022-09-18T21:53:59.132Z,99134.59
2022-09-18T21:59:01.281Z,99128.44
2022-09-18T22:04:03.010Z,99130.00
2022-09-18T22:09:14.571Z,99126.53
2022-09-18T22:14:25.408Z,99137.38
2022-09-18T22:19:27.943Z,99127.69
2022-09-18T22:24:29.899Z,99147.25
2022-09-18T22:29:34.358Z,99142.78
2022-09-18T22:34:35.975Z,99144.25
2022-09-18T22:39:37.557Z,99136.41
2022-09-18T22:44:39.147Z,99144.75
2022-09-18T22:49:41.148Z,99147.25
2022-09-18T22:54:42.688Z,99146.25
2022-09-18T22:59:44.246Z,99148.47
2022-09-18T23:04:46.956Z,99143.34
2022-09-18T23:09:48.546Z,99145.06
2022-09-18T23:14:50.096Z,99146.34
2022-09-18T23:19:51.651Z,99143.97
2022-09-18T23:24:53.189Z,99145.25
2022-09-18T23:29:54.957Z,99145.28
2022-09-18T23:34:56.547Z,99134.78
2022-09-18T23:39:58.084Z,99128.44
2022-09-18T23:44:59.674Z,99132.03
2022-09-18T23:50:01.289Z,99126.81
2022-09-18T23:55:02.917Z,99123.38
